sensor_id;sensor_type;location;lat;lon;timestamp;P1;durP1;ratioP1;P2;durP2;ratioP2
323;SDS011;149;51.094;17.002;2022-11-20T00:01:20;47.53;;;27.90;;
323;SDS011;149;51.094;17.002;2022-11-20T00:03:50;50.72;;;29.20;;
323;SDS011;149;51.094;17.002;2022-11-20T00:06:19;50.67;;;29.60;;
323;SDS011;149;51.094;17.002;2022-11-20T00:08:47;54.50;;;28.95;;
323;SDS011;149;51.094;17.002;2022-11-20T00:11:19;50.25;;;30.80;;
323;SDS011;149;51.094;17.002;2022-11-20T00:13:49;53.10;;;28.70;;
323;SDS011;149;51.094;17.002;2022-11-20T00:16:19;61.03;;;31.90;;
323;SDS011;149;51.094;17.002;2022-11-20T00:18:47;49.53;;;27.60;;
323;SDS011;149;51.094;17.002;2022-11-20T00:21:27;48.35;;;30.48;;
323;SDS011;149;51.094;17.002;2022-11-20T00:23:55;49.90;;;31.52;;
323;SDS011;149;51.094;17.002;2022-11-20T00:26:23;53.72;;;29.90;;
323;SDS011;149;51.094;17.002;2022-11-20T00:28:54;42.30;;;26.80;;
323;SDS011;149;51.094;17.002;2022-11-20T00:31:25;58.10;;;28.20;;
323;SDS011;149;51.094;17.002;2022-11-20T00:33:52;47.05;;;26.80;;
323;SDS011;149;51.094;17.002;2022-11-20T00:36:21;46.20;;;27.42;;
323;SDS011;149;51.094;17.002;2022-11-20T00:38:56;44.90;;;26.08;;
323;SDS011;149;51.094;17.002;2022-11-20T00:41:25;51.28;;;26.25;;
323;SDS011;149;51.094;17.002;2022-11-20T00:43:53;44.90;;;28.30;;
323;SDS011;149;51.094;17.002;2022-11-20T00:46:22;62.90;;;27.42;;
323;SDS011;149;51.094;17.002;2022-11-20T00:48:51;47.90;;;26.45;;
323;SDS011;149;51.094;17.002;2022-11-20T00:51:18;45.20;;;27.95;;
323;SDS011;149;51.094;17.002;2022-11-20T00:53:51;53.63;;;29.70;;
323;SDS011;149;51.094;17.002;2022-11-20T00:56:18;59.50;;;31.60;;
323;SDS011;149;51.094;17.002;2022-11-20T00:58:47;60.17;;;31.88;;
323;SDS011;149;51.094;17.002;2022-11-20T01:01:16;56.65;;;32.00;;
323;SDS011;149;51.094;17.002;2022-11-20T01:03:45;58.47;;;31.45;;
323;SDS011;149;51.094;17.002;2022-11-20T01:06:15;57.95;;;32.05;;
323;SDS011;149;51.094;17.002;2022-11-20T01:08:44;56.35;;;29.13;;
323;SDS011;149;51.094;17.002;2022-11-20T01:11:15;62.88;;;30.85;;
323;SDS011;149;51.094;17.002;2022-11-20T01:13:48;49.63;;;30.25;;
323;SDS011;149;51.094;17.002;2022-11-20T01:16:18;58.92;;;29.10;;
323;SDS011;149;51.094;17.002;2022-11-20T01:18:51;48.35;;;28.33;;
323;SDS011;149;51.094;17.002;2022-11-20T01:21:24;62.53;;;28.75;;
323;SDS011;149;51.094;17.002;2022-11-20T01:23:59;47.25;;;27.08;;
323;SDS011;149;51.094;17.002;2022-11-20T01:26:30;43.60;;;27.95;;
323;SDS011;149;51.094;17.002;2022-11-20T01:29:00;45.30;;;26.05;;
323;SDS011;149;51.094;17.002;2022-11-20T01:31:29;48.00;;;26.40;;
323;SDS011;149;51.094;17.002;2022-11-20T01:34:03;40.20;;;24.15;;
323;SDS011;149;51.094;17.002;2022-11-20T01:36:36;38.85;;;23.48;;
323;SDS011;149;51.094;17.002;2022-11-20T01:39:07;38.88;;;23.10;;
323;SDS011;149;51.094;17.002;2022-11-20T01:41:39;47.25;;;25.88;;
323;SDS011;149;51.094;17.002;2022-11-20T01:44:45;35.28;;;21.48;;
323;SDS011;149;51.094;17.002;2022-11-20T01:50:08;38.50;;;24.05;;
323;SDS011;149;51.094;17.002;2022-11-20T01:52:46;42.08;;;24.20;;
323;SDS011;149;51.094;17.002;2022-11-20T01:55:31;43.03;;;23.77;;
323;SDS011;149;51.094;17.002;2022-11-20T01:58:04;39.55;;;23.25;;
323;SDS011;149;51.094;17.002;2022-11-20T02:00:31;41.90;;;25.52;;
323;SDS011;149;51.094;17.002;2022-11-20T02:03:03;43.95;;;23.77;;
323;SDS011;149;51.094;17.002;2022-11-20T02:08:26;37.20;;;22.15;;
323;SDS011;149;51.094;17.002;2022-11-20T02:10:55;34.85;;;21.90;;
323;SDS011;149;51.094;17.002;2022-11-20T02:13:22;40.58;;;23.73;;
323;SDS011;149;51.094;17.002;2022-11-20T02:16:10;42.88;;;21.38;;
323;SDS011;149;51.094;17.002;2022-11-20T02:18:58;38.85;;;22.05;;
323;SDS011;149;51.094;17.002;2022-11-20T02:21:46;38.08;;;21.80;;
323;SDS011;149;51.094;17.002;2022-11-20T02:24:21;34.95;;;20.48;;
323;SDS011;149;51.094;17.002;2022-11-20T02:26:57;40.35;;;22.45;;
323;SDS011;149;51.094;17.002;2022-11-20T02:29:33;36.90;;;22.15;;
323;SDS011;149;51.094;17.002;2022-11-20T02:32:01;34.28;;;21.77;;
323;SDS011;149;51.094;17.002;2022-11-20T02:34:29;39.55;;;20.88;;
323;SDS011;149;51.094;17.002;2022-11-20T02:36:56;41.28;;;22.08;;
323;SDS011;149;51.094;17.002;2022-11-20T02:39:25;42.00;;;22.90;;
323;SDS011;149;51.094;17.002;2022-11-20T02:41:54;39.85;;;23.45;;
323;SDS011;149;51.094;17.002;2022-11-20T02:44:23;36.30;;;21.25;;
323;SDS011;149;51.094;17.002;2022-11-20T02:46:49;41.45;;;20.45;;
323;SDS011;149;51.094;17.002;2022-11-20T02:49:16;39.45;;;23.30;;
323;SDS011;149;51.094;17.002;2022-11-20T02:51:44;34.63;;;20.35;;
323;SDS011;149;51.094;17.002;2022-11-20T02:54:11;38.78;;;21.35;;
323;SDS011;149;51.094;17.002;2022-11-20T02:56:38;42.53;;;24.48;;
323;SDS011;149;51.094;17.002;2022-11-20T02:59:05;32.90;;;18.67;;
323;SDS011;149;51.094;17.002;2022-11-20T03:01:33;35.85;;;21.23;;
323;SDS011;149;51.094;17.002;2022-11-20T03:04:00;35.72;;;20.70;;
323;SDS011;149;51.094;17.002;2022-11-20T03:06:27;33.58;;;20.30;;
323;SDS011;149;51.094;17.002;2022-11-20T03:08:53;32.42;;;21.17;;
323;SDS011;149;51.094;17.002;2022-11-20T03:11:21;30.20;;;18.42;;
323;SDS011;149;51.094;17.002;2022-11-20T03:13:48;35.80;;;21.23;;
323;SDS011;149;51.094;17.002;2022-11-20T03:16:16;38.35;;;21.98;;
323;SDS011;149;51.094;17.002;2022-11-20T03:18:45;40.17;;;21.67;;
323;SDS011;149;51.094;17.002;2022-11-20T03:21:14;34.60;;;22.08;;
323;SDS011;149;51.094;17.002;2022-11-20T03:23:41;33.38;;;20.75;;
323;SDS011;149;51.094;17.002;2022-11-20T03:28:51;36.83;;;22.23;;
323;SDS011;149;51.094;17.002;2022-11-20T03:31:20;33.75;;;19.73;;
323;SDS011;149;51.094;17.002;2022-11-20T03:33:49;41.80;;;19.73;;
323;SDS011;149;51.094;17.002;2022-11-20T03:36:17;37.40;;;21.80;;
323;SDS011;149;51.094;17.002;2022-11-20T03:38:45;43.63;;;22.17;;
323;SDS011;149;51.094;17.002;2022-11-20T03:41:20;40.50;;;22.90;;
323;SDS011;149;51.094;17.002;2022-11-20T03:46:17;40.67;;;24.50;;
323;SDS011;149;51.094;17.002;2022-11-20T03:48:44;36.75;;;20.30;;
323;SDS011;149;51.094;17.002;2022-11-20T03:53:46;38.80;;;22.70;;
323;SDS011;149;51.094;17.002;2022-11-20T03:56:15;39.08;;;23.77;;
323;SDS011;149;51.094;17.002;2022-11-20T03:58:43;35.67;;;22.70;;
323;SDS011;149;51.094;17.002;2022-11-20T04:01:14;43.33;;;23.38;;
323;SDS011;149;51.094;17.002;2022-11-20T04:03:46;35.60;;;22.17;;
323;SDS011;149;51.094;17.002;2022-11-20T04:06:15;33.25;;;19.60;;
323;SDS011;149;51.094;17.002;2022-11-20T04:08:47;37.67;;;21.35;;
323;SDS011;149;51.094;17.002;2022-11-20T04:11:29;35.90;;;22.67;;
323;SDS011;149;51.094;17.002;2022-11-20T04:14:02;38.08;;;22.05;;
323;SDS011;149;51.094;17.002;2022-11-20T04:16:33;31.30;;;21.65;;
323;SDS011;149;51.094;17.002;2022-11-20T04:19:03;38.95;;;23.10;;
323;SDS011;149;51.094;17.002;2022-11-20T04:21:32;42.30;;;25.02;;
323;SDS011;149;51.094;17.002;2022-11-20T04:23:59;37.50;;;21.25;;
323;SDS011;149;51.094;17.002;2022-11-20T04:26:26;36.17;;;21.63;;
323;SDS011;149;51.094;17.002;2022-11-20T04:28:55;31.75;;;21.27;;
323;SDS011;149;51.094;17.002;2022-11-20T04:31:23;34.45;;;20.55;;
323;SDS011;149;51.094;17.002;2022-11-20T04:33:53;41.80;;;21.80;;
323;SDS011;149;51.094;17.002;2022-11-20T04:36:24;28.58;;;18.30;;
323;SDS011;149;51.094;17.002;2022-11-20T04:38:53;36.88;;;20.88;;
323;SDS011;149;51.094;17.002;2022-11-20T04:41:24;36.78;;;20.20;;
323;SDS011;149;51.094;17.002;2022-11-20T04:43:53;41.58;;;22.17;;
323;SDS011;149;51.094;17.002;2022-11-20T04:46:33;34.22;;;19.00;;
323;SDS011;149;51.094;17.002;2022-11-20T04:49:01;41.50;;;21.27;;
323;SDS011;149;51.094;17.002;2022-11-20T04:51:29;36.10;;;20.85;;
323;SDS011;149;51.094;17.002;2022-11-20T04:53:56;34.97;;;20.08;;
323;SDS011;149;51.094;17.002;2022-11-20T04:56:23;41.47;;;23.52;;
323;SDS011;149;51.094;17.002;2022-11-20T04:58:50;40.40;;;23.30;;
323;SDS011;149;51.094;17.002;2022-11-20T05:01:18;40.22;;;23.17;;
323;SDS011;149;51.094;17.002;2022-11-20T05:03:47;41.08;;;24.30;;
323;SDS011;149;51.094;17.002;2022-11-20T05:06:16;48.45;;;23.23;;
323;SDS011;149;51.094;17.002;2022-11-20T05:08:44;35.08;;;20.70;;
323;SDS011;149;51.094;17.002;2022-11-20T05:11:13;36.05;;;20.60;;
323;SDS011;149;51.094;17.002;2022-11-20T05:13:42;34.70;;;22.42;;
323;SDS011;149;51.094;17.002;2022-11-20T05:16:14;35.15;;;20.52;;
323;SDS011;149;51.094;17.002;2022-11-20T05:18:46;44.67;;;23.88;;
323;SDS011;149;51.094;17.002;2022-11-20T05:21:13;38.55;;;22.38;;
323;SDS011;149;51.094;17.002;2022-11-20T05:23:40;37.58;;;20.67;;
323;SDS011;149;51.094;17.002;2022-11-20T05:26:11;40.92;;;24.67;;
323;SDS011;149;51.094;17.002;2022-11-20T05:28:43;41.67;;;23.08;;
323;SDS011;149;51.094;17.002;2022-11-20T05:31:14;42.47;;;23.58;;
323;SDS011;149;51.094;17.002;2022-11-20T05:33:51;44.92;;;23.50;;
323;SDS011;149;51.094;17.002;2022-11-20T05:36:18;38.28;;;22.25;;
323;SDS011;149;51.094;17.002;2022-11-20T05:38:44;35.50;;;20.73;;
323;SDS011;149;51.094;17.002;2022-11-20T05:41:16;42.63;;;22.40;;
323;SDS011;149;51.094;17.002;2022-11-20T05:43:45;37.03;;;22.10;;
323;SDS011;149;51.094;17.002;2022-11-20T05:46:14;47.75;;;24.67;;
323;SDS011;149;51.094;17.002;2022-11-20T05:48:47;36.17;;;21.27;;
323;SDS011;149;51.094;17.002;2022-11-20T05:51:15;44.88;;;25.98;;
323;SDS011;149;51.094;17.002;2022-11-20T05:53:43;38.22;;;23.60;;
323;SDS011;149;51.094;17.002;2022-11-20T05:56:18;48.65;;;26.13;;
323;SDS011;149;51.094;17.002;2022-11-20T05:58:46;42.03;;;24.92;;
323;SDS011;149;51.094;17.002;2022-11-20T06:01:14;45.28;;;25.00;;
323;SDS011;149;51.094;17.002;2022-11-20T06:03:46;45.63;;;25.27;;
323;SDS011;149;51.094;17.002;2022-11-20T06:06:14;44.90;;;28.15;;
323;SDS011;149;51.094;17.002;2022-11-20T06:08:43;42.22;;;25.77;;
323;SDS011;149;51.094;17.002;2022-11-20T06:11:11;50.17;;;25.70;;
323;SDS011;149;51.094;17.002;2022-11-20T06:13:39;50.25;;;25.23;;
323;SDS011;149;51.094;17.002;2022-11-20T06:16:08;47.70;;;25.40;;
323;SDS011;149;51.094;17.002;2022-11-20T06:18:36;42.05;;;23.25;;
323;SDS011;149;51.094;17.002;2022-11-20T06:21:04;49.15;;;25.55;;
323;SDS011;149;51.094;17.002;2022-11-20T06:23:34;50.63;;;27.67;;
323;SDS011;149;51.094;17.002;2022-11-20T06:26:06;46.05;;;25.10;;
323;SDS011;149;51.094;17.002;2022-11-20T06:28:35;43.47;;;24.55;;
323;SDS011;149;51.094;17.002;2022-11-20T06:31:02;49.45;;;26.05;;
323;SDS011;149;51.094;17.002;2022-11-20T06:33:31;44.88;;;27.58;;
323;SDS011;149;51.094;17.002;2022-11-20T06:35:59;39.25;;;25.85;;
323;SDS011;149;51.094;17.002;2022-11-20T06:38:35;59.20;;;25.92;;
323;SDS011;149;51.094;17.002;2022-11-20T06:41:03;45.28;;;27.90;;
323;SDS011;149;51.094;17.002;2022-11-20T06:43:31;52.17;;;27.17;;
323;SDS011;149;51.094;17.002;2022-11-20T06:45:58;50.90;;;28.38;;
323;SDS011;149;51.094;17.002;2022-11-20T06:48:28;46.40;;;25.80;;
323;SDS011;149;51.094;17.002;2022-11-20T06:50:55;47.08;;;27.65;;
323;SDS011;149;51.094;17.002;2022-11-20T06:53:23;47.90;;;27.63;;
323;SDS011;149;51.094;17.002;2022-11-20T06:55:50;41.55;;;24.33;;
323;SDS011;149;51.094;17.002;2022-11-20T06:58:18;41.85;;;26.02;;
323;SDS011;149;51.094;17.002;2022-11-20T07:00:45;56.83;;;31.05;;
323;SDS011;149;51.094;17.002;2022-11-20T07:03:12;54.33;;;28.75;;
323;SDS011;149;51.094;17.002;2022-11-20T07:05:41;57.92;;;32.15;;
323;SDS011;149;51.094;17.002;2022-11-20T07:08:08;48.13;;;27.65;;
323;SDS011;149;51.094;17.002;2022-11-20T07:10:35;39.75;;;26.30;;
323;SDS011;149;51.094;17.002;2022-11-20T07:13:02;45.92;;;27.23;;
323;SDS011;149;51.094;17.002;2022-11-20T07:15:30;43.67;;;27.20;;
323;SDS011;149;51.094;17.002;2022-11-20T07:18:00;39.35;;;25.83;;
323;SDS011;149;51.094;17.002;2022-11-20T07:20:27;41.90;;;27.45;;
323;SDS011;149;51.094;17.002;2022-11-20T07:22:56;43.97;;;26.45;;
323;SDS011;149;51.094;17.002;2022-11-20T07:25:33;47.40;;;26.98;;
323;SDS011;149;51.094;17.002;2022-11-20T07:28:05;47.38;;;28.33;;
323;SDS011;149;51.094;17.002;2022-11-20T07:30:39;51.10;;;28.95;;
323;SDS011;149;51.094;17.002;2022-11-20T07:33:14;45.53;;;27.55;;
323;SDS011;149;51.094;17.002;2022-11-20T07:35:55;42.85;;;27.30;;
323;SDS011;149;51.094;17.002;2022-11-20T07:38:41;40.58;;;25.88;;
323;SDS011;149;51.094;17.002;2022-11-20T07:41:26;39.70;;;26.17;;
323;SDS011;149;51.094;17.002;2022-11-20T07:44:01;38.67;;;25.67;;
323;SDS011;149;51.094;17.002;2022-11-20T07:46:40;45.53;;;25.65;;
323;SDS011;149;51.094;17.002;2022-11-20T07:49:18;46.28;;;28.83;;
323;SDS011;149;51.094;17.002;2022-11-20T07:51:51;36.85;;;24.98;;
323;SDS011;149;51.094;17.002;2022-11-20T07:54:43;43.55;;;25.92;;
323;SDS011;149;51.094;17.002;2022-11-20T07:57:12;42.90;;;27.40;;
323;SDS011;149;51.094;17.002;2022-11-20T07:59:43;52.13;;;30.05;;
323;SDS011;149;51.094;17.002;2022-11-20T08:02:14;45.83;;;27.52;;
323;SDS011;149;51.094;17.002;2022-11-20T08:04:55;41.78;;;27.05;;
323;SDS011;149;51.094;17.002;2022-11-20T08:07:27;46.97;;;26.95;;
323;SDS011;149;51.094;17.002;2022-11-20T08:09:57;54.97;;;32.85;;
323;SDS011;149;51.094;17.002;2022-11-20T08:12:43;46.05;;;29.48;;
323;SDS011;149;51.094;17.002;2022-11-20T08:15:50;45.33;;;25.25;;
323;SDS011;149;51.094;17.002;2022-11-20T08:18:36;54.75;;;27.42;;
323;SDS011;149;51.094;17.002;2022-11-20T08:21:04;42.08;;;25.58;;
323;SDS011;149;51.094;17.002;2022-11-20T08:23:32;43.17;;;27.88;;
323;SDS011;149;51.094;17.002;2022-11-20T08:25:59;57.63;;;30.20;;
323;SDS011;149;51.094;17.002;2022-11-20T08:28:26;45.53;;;28.45;;
323;SDS011;149;51.094;17.002;2022-11-20T08:30:58;46.22;;;27.85;;
323;SDS011;149;51.094;17.002;2022-11-20T08:33:26;47.17;;;27.65;;
323;SDS011;149;51.094;17.002;2022-11-20T08:35:57;36.83;;;24.20;;
323;SDS011;149;51.094;17.002;2022-11-20T08:38:29;41.70;;;24.80;;
323;SDS011;149;51.094;17.002;2022-11-20T08:41:00;46.72;;;26.92;;
323;SDS011;149;51.094;17.002;2022-11-20T08:43:47;39.15;;;25.83;;
323;SDS011;149;51.094;17.002;2022-11-20T08:46:14;33.42;;;23.75;;
323;SDS011;149;51.094;17.002;2022-11-20T08:48:42;32.85;;;24.00;;
323;SDS011;149;51.094;17.002;2022-11-20T08:51:09;39.72;;;24.60;;
323;SDS011;149;51.094;17.002;2022-11-20T08:53:37;39.65;;;25.02;;
323;SDS011;149;51.094;17.002;2022-11-20T08:56:05;37.38;;;23.77;;
323;SDS011;149;51.094;17.002;2022-11-20T08:58:32;37.85;;;24.80;;
323;SDS011;149;51.094;17.002;2022-11-20T09:01:21;38.33;;;25.35;;
323;SDS011;149;51.094;17.002;2022-11-20T09:03:49;40.42;;;24.48;;
323;SDS011;149;51.094;17.002;2022-11-20T09:06:16;40.22;;;27.40;;
323;SDS011;149;51.094;17.002;2022-11-20T09:08:44;32.75;;;22.67;;
323;SDS011;149;51.094;17.002;2022-11-20T09:11:10;38.20;;;24.15;;
323;SDS011;149;51.094;17.002;2022-11-20T09:13:40;31.30;;;22.42;;
323;SDS011;149;51.094;17.002;2022-11-20T09:16:08;33.88;;;23.60;;
323;SDS011;149;51.094;17.002;2022-11-20T09:18:35;33.58;;;24.15;;
323;SDS011;149;51.094;17.002;2022-11-20T09:21:07;32.00;;;21.25;;
323;SDS011;149;51.094;17.002;2022-11-20T09:23:39;32.28;;;21.08;;
323;SDS011;149;51.094;17.002;2022-11-20T09:26:07;32.05;;;20.88;;
323;SDS011;149;51.094;17.002;2022-11-20T09:28:38;30.98;;;19.60;;
323;SDS011;149;51.094;17.002;2022-11-20T09:31:06;38.05;;;22.88;;
323;SDS011;149;51.094;17.002;2022-11-20T09:33:35;31.65;;;21.02;;
323;SDS011;149;51.094;17.002;2022-11-20T09:36:02;36.72;;;20.65;;
323;SDS011;149;51.094;17.002;2022-11-20T09:38:29;32.70;;;21.58;;
323;SDS011;149;51.094;17.002;2022-11-20T09:41:06;39.08;;;22.15;;
323;SDS011;149;51.094;17.002;2022-11-20T09:49:57;31.45;;;21.20;;
323;SDS011;149;51.094;17.002;2022-11-20T09:52:33;32.63;;;20.35;;
323;SDS011;149;51.094;17.002;2022-11-20T09:55:16;33.50;;;18.63;;
323;SDS011;149;51.094;17.002;2022-11-20T09:57:54;32.88;;;20.55;;
323;SDS011;149;51.094;17.002;2022-11-20T10:00:53;30.95;;;19.67;;
323;SDS011;149;51.094;17.002;2022-11-20T10:03:36;33.70;;;20.38;;
323;SDS011;149;51.094;17.002;2022-11-20T10:06:55;32.65;;;20.23;;
323;SDS011;149;51.094;17.002;2022-11-20T10:09:58;32.28;;;19.88;;
323;SDS011;149;51.094;17.002;2022-11-20T10:26:58;25.50;;;18.73;;
323;SDS011;149;51.094;17.002;2022-11-20T10:30:02;29.42;;;20.35;;
323;SDS011;149;51.094;17.002;2022-11-20T10:32:36;31.92;;;19.83;;
323;SDS011;149;51.094;17.002;2022-11-20T10:35:26;31.20;;;20.02;;
323;SDS011;149;51.094;17.002;2022-11-20T10:38:05;29.60;;;18.25;;
323;SDS011;149;51.094;17.002;2022-11-20T10:40:48;29.70;;;19.67;;
323;SDS011;149;51.094;17.002;2022-11-20T10:43:42;32.85;;;20.35;;
323;SDS011;149;51.094;17.002;2022-11-20T10:46:14;35.17;;;22.20;;
323;SDS011;149;51.094;17.002;2022-11-20T10:48:43;33.15;;;20.63;;
323;SDS011;149;51.094;17.002;2022-11-20T10:56:56;35.67;;;19.67;;
323;SDS011;149;51.094;17.002;2022-11-20T11:00:16;27.17;;;18.17;;
323;SDS011;149;51.094;17.002;2022-11-20T11:02:51;31.33;;;17.85;;
323;SDS011;149;51.094;17.002;2022-11-20T11:08:19;26.30;;;16.45;;
323;SDS011;149;51.094;17.002;2022-11-20T11:10:54;24.67;;;16.80;;
323;SDS011;149;51.094;17.002;2022-11-20T11:13:29;30.35;;;16.80;;
323;SDS011;149;51.094;17.002;2022-11-20T11:16:00;31.50;;;17.88;;
323;SDS011;149;51.094;17.002;2022-11-20T11:18:32;21.08;;;15.85;;
323;SDS011;149;51.094;17.002;2022-11-20T11:21:24;22.27;;;15.60;;
323;SDS011;149;51.094;17.002;2022-11-20T11:23:59;26.10;;;17.45;;
323;SDS011;149;51.094;17.002;2022-11-20T11:26:59;27.05;;;16.65;;
323;SDS011;149;51.094;17.002;2022-11-20T11:29:33;20.73;;;14.35;;
323;SDS011;149;51.094;17.002;2022-11-20T11:32:03;23.80;;;16.60;;
323;SDS011;149;51.094;17.002;2022-11-20T11:34:34;26.08;;;15.95;;
323;SDS011;149;51.094;17.002;2022-11-20T11:37:02;22.50;;;15.52;;
323;SDS011;149;51.094;17.002;2022-11-20T11:39:32;24.50;;;15.55;;
323;SDS011;149;51.094;17.002;2022-11-20T11:42:00;24.58;;;17.13;;
323;SDS011;149;51.094;17.002;2022-11-20T11:44:28;22.92;;;15.35;;
323;SDS011;149;51.094;17.002;2022-11-20T11:47:23;23.58;;;15.85;;
323;SDS011;149;51.094;17.002;2022-11-20T11:50:13;23.38;;;15.02;;
323;SDS011;149;51.094;17.002;2022-11-20T11:58:20;27.58;;;16.02;;
323;SDS011;149;51.094;17.002;2022-11-20T12:04:17;21.83;;;14.70;;
323;SDS011;149;51.094;17.002;2022-11-20T12:07:00;19.63;;;15.35;;
323;SDS011;149;51.094;17.002;2022-11-20T12:09:55;21.27;;;15.25;;
323;SDS011;149;51.094;17.002;2022-11-20T12:12:27;36.33;;;18.48;;
323;SDS011;149;51.094;17.002;2022-11-20T12:15:13;21.33;;;16.10;;
323;SDS011;149;51.094;17.002;2022-11-20T12:17:49;25.17;;;15.52;;
323;SDS011;149;51.094;17.002;2022-11-20T12:20:32;25.73;;;16.02;;
323;SDS011;149;51.094;17.002;2022-11-20T12:23:10;20.58;;;15.52;;
323;SDS011;149;51.094;17.002;2022-11-20T12:26:19;23.10;;;16.08;;
323;SDS011;149;51.094;17.002;2022-11-20T12:37:18;23.15;;;15.75;;
323;SDS011;149;51.094;17.002;2022-11-20T12:39:49;21.67;;;16.00;;
323;SDS011;149;51.094;17.002;2022-11-20T12:51:30;18.20;;;13.35;;
323;SDS011;149;51.094;17.002;2022-11-20T12:57:53;17.83;;;14.02;;
323;SDS011;149;51.094;17.002;2022-11-20T13:00:27;25.63;;;15.38;;
323;SDS011;149;51.094;17.002;2022-11-20T13:03:27;18.58;;;14.93;;
323;SDS011;149;51.094;17.002;2022-11-20T13:06:21;26.73;;;15.35;;
323;SDS011;149;51.094;17.002;2022-11-20T13:09:04;23.85;;;16.95;;
323;SDS011;149;51.094;17.002;2022-11-20T13:20:14;27.20;;;16.73;;
323;SDS011;149;51.094;17.002;2022-11-20T13:22:49;21.92;;;16.23;;
323;SDS011;149;51.094;17.002;2022-11-20T13:25:32;16.83;;;12.75;;
323;SDS011;149;51.094;17.002;2022-11-20T13:30:48;22.08;;;15.73;;
323;SDS011;149;51.094;17.002;2022-11-20T13:36:04;19.90;;;15.35;;
323;SDS011;149;51.094;17.002;2022-11-20T13:38:50;22.23;;;14.88;;
323;SDS011;149;51.094;17.002;2022-11-20T13:41:34;22.05;;;15.07;;
323;SDS011;149;51.094;17.002;2022-11-20T13:47:22;18.60;;;14.25;;
323;SDS011;149;51.094;17.002;2022-11-20T13:49:52;20.38;;;13.07;;
323;SDS011;149;51.094;17.002;2022-11-20T13:55:18;32.97;;;15.25;;
323;SDS011;149;51.094;17.002;2022-11-20T13:58:04;19.80;;;14.10;;
323;SDS011;149;51.094;17.002;2022-11-20T14:00:57;18.33;;;13.65;;
323;SDS011;149;51.094;17.002;2022-11-20T14:03:29;23.80;;;14.70;;
323;SDS011;149;51.094;17.002;2022-11-20T14:07:01;22.33;;;13.80;;
323;SDS011;149;51.094;17.002;2022-11-20T14:09:12;26.63;;;14.27;;
323;SDS011;149;51.094;17.002;2022-11-20T14:11:50;26.30;;;15.13;;
323;SDS011;149;51.094;17.002;2022-11-20T14:14:18;18.60;;;12.10;;
323;SDS011;149;51.094;17.002;2022-11-20T14:16:48;17.70;;;11.77;;
323;SDS011;149;51.094;17.002;2022-11-20T14:24:14;21.92;;;13.38;;
323;SDS011;149;51.094;17.002;2022-11-20T14:26:50;22.42;;;14.88;;
323;SDS011;149;51.094;17.002;2022-11-20T14:29:21;19.10;;;13.77;;
323;SDS011;149;51.094;17.002;2022-11-20T14:32:10;22.95;;;15.23;;
323;SDS011;149;51.094;17.002;2022-11-20T14:34:38;19.95;;;13.90;;
323;SDS011;149;51.094;17.002;2022-11-20T14:37:10;19.15;;;14.40;;
323;SDS011;149;51.094;17.002;2022-11-20T14:39:46;20.63;;;13.95;;
323;SDS011;149;51.094;17.002;2022-11-20T14:42:25;20.90;;;14.50;;
323;SDS011;149;51.094;17.002;2022-11-20T14:44:58;20.00;;;14.90;;
323;SDS011;149;51.094;17.002;2022-11-20T14:47:27;23.05;;;15.98;;
323;SDS011;149;51.094;17.002;2022-11-20T14:49:57;28.73;;;16.70;;
323;SDS011;149;51.094;17.002;2022-11-20T14:52:32;23.00;;;15.40;;
323;SDS011;149;51.094;17.002;2022-11-20T14:55:25;21.48;;;16.70;;
323;SDS011;149;51.094;17.002;2022-11-20T14:58:03;22.60;;;16.80;;
323;SDS011;149;51.094;17.002;2022-11-20T15:00:35;24.60;;;17.50;;
323;SDS011;149;51.094;17.002;2022-11-20T15:03:03;32.10;;;19.25;;
323;SDS011;149;51.094;17.002;2022-11-20T15:05:47;23.52;;;16.50;;
323;SDS011;149;51.094;17.002;2022-11-20T15:08:16;27.10;;;18.63;;
323;SDS011;149;51.094;17.002;2022-11-20T15:10:47;33.28;;;20.20;;
323;SDS011;149;51.094;17.002;2022-11-20T15:16:02;29.15;;;18.42;;
323;SDS011;149;51.094;17.002;2022-11-20T15:18:36;34.80;;;23.00;;
323;SDS011;149;51.094;17.002;2022-11-20T15:21:12;29.27;;;22.70;;
323;SDS011;149;51.094;17.002;2022-11-20T15:23:41;31.17;;;21.75;;
323;SDS011;149;51.094;17.002;2022-11-20T15:26:10;33.25;;;24.38;;
323;SDS011;149;51.094;17.002;2022-11-20T15:28:46;34.40;;;25.90;;
323;SDS011;149;51.094;17.002;2022-11-20T15:31:16;38.13;;;25.52;;
323;SDS011;149;51.094;17.002;2022-11-20T15:33:46;36.72;;;25.17;;
323;SDS011;149;51.094;17.002;2022-11-20T15:36:14;37.80;;;25.15;;
323;SDS011;149;51.094;17.002;2022-11-20T15:38:41;34.92;;;25.23;;
323;SDS011;149;51.094;17.002;2022-11-20T15:41:08;42.30;;;24.75;;
323;SDS011;149;51.094;17.002;2022-11-20T15:43:36;33.50;;;24.30;;
323;SDS011;149;51.094;17.002;2022-11-20T15:46:06;38.13;;;26.77;;
323;SDS011;149;51.094;17.002;2022-11-20T15:48:38;37.33;;;24.52;;
323;SDS011;149;51.094;17.002;2022-11-20T15:51:21;40.72;;;26.80;;
323;SDS011;149;51.094;17.002;2022-11-20T15:53:54;45.70;;;30.98;;
323;SDS011;149;51.094;17.002;2022-11-20T15:56:23;43.10;;;30.65;;
323;SDS011;149;51.094;17.002;2022-11-20T15:58:50;47.15;;;31.40;;
323;SDS011;149;51.094;17.002;2022-11-20T16:01:18;43.17;;;27.80;;
323;SDS011;149;51.094;17.002;2022-11-20T16:03:48;41.20;;;27.05;;
323;SDS011;149;51.094;17.002;2022-11-20T16:06:15;43.80;;;27.75;;
323;SDS011;149;51.094;17.002;2022-11-20T16:08:42;48.40;;;29.73;;
323;SDS011;149;51.094;17.002;2022-11-20T16:11:14;44.42;;;29.90;;
323;SDS011;149;51.094;17.002;2022-11-20T16:13:42;45.15;;;30.25;;
323;SDS011;149;51.094;17.002;2022-11-20T16:16:32;45.42;;;30.65;;
323;SDS011;149;51.094;17.002;2022-11-20T16:19:00;53.33;;;30.00;;
323;SDS011;149;51.094;17.002;2022-11-20T16:21:28;48.92;;;30.50;;
323;SDS011;149;51.094;17.002;2022-11-20T16:23:59;46.28;;;30.05;;
323;SDS011;149;51.094;17.002;2022-11-20T16:26:27;45.78;;;30.48;;
323;SDS011;149;51.094;17.002;2022-11-20T16:28:54;45.58;;;29.92;;
323;SDS011;149;51.094;17.002;2022-11-20T16:31:22;58.47;;;29.52;;
323;SDS011;149;51.094;17.002;2022-11-20T16:33:53;42.33;;;27.25;;
323;SDS011;149;51.094;17.002;2022-11-20T16:36:22;49.38;;;32.60;;
323;SDS011;149;51.094;17.002;2022-11-20T16:38:52;50.70;;;29.58;;
323;SDS011;149;51.094;17.002;2022-11-20T16:41:20;40.92;;;28.92;;
323;SDS011;149;51.094;17.002;2022-11-20T16:43:52;43.45;;;29.02;;
323;SDS011;149;51.094;17.002;2022-11-20T16:46:21;51.03;;;28.60;;
323;SDS011;149;51.094;17.002;2022-11-20T16:48:57;50.78;;;31.02;;
323;SDS011;149;51.094;17.002;2022-11-20T16:51:26;48.13;;;30.83;;
323;SDS011;149;51.094;17.002;2022-11-20T16:53:55;45.92;;;27.15;;
323;SDS011;149;51.094;17.002;2022-11-20T16:56:23;50.75;;;27.75;;
323;SDS011;149;51.094;17.002;2022-11-20T16:58:52;37.63;;;26.63;;
323;SDS011;149;51.094;17.002;2022-11-20T17:01:21;46.10;;;26.88;;
323;SDS011;149;51.094;17.002;2022-11-20T17:03:59;49.72;;;29.20;;
323;SDS011;149;51.094;17.002;2022-11-20T17:06:28;49.63;;;30.65;;
323;SDS011;149;51.094;17.002;2022-11-20T17:08:57;41.28;;;26.83;;
323;SDS011;149;51.094;17.002;2022-11-20T17:11:24;41.85;;;26.63;;
323;SDS011;149;51.094;17.002;2022-11-20T17:13:53;47.15;;;29.08;;
323;SDS011;149;51.094;17.002;2022-11-20T17:16:22;47.75;;;29.98;;